createdAt,value
2022-08-26T00:00:04.014Z,27.49
2022-08-26T00:02:35.286Z,27.51
2022-08-26T00:05:07.063Z,27.52
2022-08-26T00:07:38.940Z,27.50
2022-08-26T00:10:12.125Z,27.48
2022-08-26T00:12:43.221Z,27.45
2022-08-26T00:15:16.529Z,27.41
2022-08-26T00:17:48.402Z,27.40
2022-08-26T00:20:22.797Z,27.37
2022-08-26T00:22:53.524Z,27.34
2022-08-26T00:25:24.943Z,27.33
2022-08-26T00:27:55.726Z,27.30
2022-08-26T00:30:30.044Z,27.30
2022-08-26T00:33:02.217Z,27.32
2022-08-26T00:35:34.344Z,27.33
2022-08-26T00:38:06.921Z,27.31
2022-08-26T00:40:45.552Z,27.28
2022-08-26T00:43:17.269Z,27.26
2022-08-26T00:45:55.536Z,27.26
2022-08-26T00:48:31.696Z,27.24
2022-08-26T00:51:07.814Z,27.21
2022-08-26T00:53:45.695Z,27.19
2022-08-26T00:56:23.727Z,27.19
2022-08-26T00:58:55.590Z,27.17
2022-08-26T01:01:28.427Z,27.16
2022-08-26T01:04:02.960Z,27.13
2022-08-26T01:06:34.408Z,27.11
2022-08-26T01:09:05.655Z,27.10
2022-08-26T01:11:37.323Z,27.06
2022-08-26T01:14:09.732Z,27.03
2022-08-26T01:16:40.765Z,27.00
2022-08-26T01:19:25.014Z,26.98
2022-08-26T01:22:00.389Z,26.96
2022-08-26T01:24:32.724Z,26.98
2022-08-26T01:27:08.193Z,26.99
2022-08-26T01:29:42.741Z,27.01
2022-08-26T01:32:16.383Z,27.02
2022-08-26T01:34:49.579Z,27.02
2022-08-26T01:37:24.672Z,27.04
2022-08-26T01:39:57.618Z,27.06
2022-08-26T01:42:29.422Z,27.08
2022-08-26T01:45:04.822Z,27.06
2022-08-26T01:47:37.888Z,27.06
2022-08-26T01:50:15.850Z,27.06
2022-08-26T01:53:00.722Z,27.03
2022-08-26T01:55:33.362Z,27.00
2022-08-26T01:58:05.798Z,26.97
2022-08-26T02:00:37.461Z,26.92
2022-08-26T02:03:21.470Z,26.90
2022-08-26T02:05:56.656Z,26.87
2022-08-26T02:08:32.165Z,26.85
2022-08-26T02:11:04.063Z,26.84
2022-08-26T02:13:39.558Z,26.84
2022-08-26T02:16:11.905Z,26.83
2022-08-26T02:18:44.891Z,26.83
2022-08-26T02:21:19.192Z,26.81
2022-08-26T02:23:49.970Z,26.78
2022-08-26T02:26:23.770Z,26.77
2022-08-26T02:29:00.934Z,26.79
2022-08-26T02:31:32.183Z,26.93
2022-08-26T02:34:12.414Z,27.14
2022-08-26T02:36:44.199Z,27.32
2022-08-26T02:39:21.954Z,27.45
2022-08-26T02:41:53.562Z,27.57
2022-08-26T02:44:24.648Z,27.68
2022-08-26T02:46:56.968Z,27.77
2022-08-26T02:49:28.893Z,27.83
2022-08-26T02:52:02.037Z,27.91
2022-08-26T02:54:33.171Z,27.97
2022-08-26T02:57:05.398Z,28.02
2022-08-26T02:59:39.435Z,28.07
2022-08-26T03:02:11.402Z,28.14
2022-08-26T03:04:57.335Z,28.19
2022-08-26T03:07:31.919Z,28.23
2022-08-26T03:10:08.534Z,28.27
2022-08-26T03:12:40.583Z,28.30
2022-08-26T03:15:15.871Z,28.31
2022-08-26T03:17:50.337Z,28.34
2022-08-26T03:20:21.413Z,28.38
2022-08-26T03:22:53.484Z,28.42
2022-08-26T03:25:27.936Z,28.44
2022-08-26T03:27:59.411Z,28.45
2022-08-26T03:30:45.285Z,28.45
2022-08-26T03:33:17.227Z,28.33
2022-08-26T03:35:50.553Z,28.18
2022-08-26T03:38:20.424Z,28.07
2022-08-26T03:40:52.381Z,27.95
2022-08-26T03:43:26.908Z,27.91
2022-08-26T03:45:57.583Z,27.89
2022-08-26T03:48:28.362Z,27.85
2022-08-26T03:51:01.509Z,27.81
2022-08-26T03:53:34.030Z,27.77
2022-08-26T03:56:07.883Z,27.73
2022-08-26T03:58:39.180Z,27.68
2022-08-26T04:01:16.188Z,27.64
2022-08-26T04:04:01.505Z,27.64
2022-08-26T04:06:36.040Z,27.64
2022-08-26T04:09:10.074Z,27.70
2022-08-26T04:11:43.687Z,27.78
2022-08-26T04:14:20.242Z,27.84
2022-08-26T04:16:51.465Z,27.91
2022-08-26T04:19:24.266Z,27.97
2022-08-26T04:21:55.901Z,28.00
2022-08-26T04:24:29.012Z,28.03
2022-08-26T04:27:02.168Z,28.07
2022-08-26T04:29:33.224Z,28.11
2022-08-26T04:32:06.412Z,28.14
2022-08-26T04:34:39.161Z,28.16
2022-08-26T04:37:10.770Z,28.18
2022-08-26T04:39:41.554Z,28.20
2022-08-26T04:42:13.514Z,28.23
2022-08-26T04:44:44.365Z,28.25
2022-08-26T04:47:15.118Z,28.26
2022-08-26T04:49:45.785Z,28.26
2022-08-26T04:52:16.527Z,28.28
2022-08-26T04:54:47.341Z,28.29
2022-08-26T04:57:19.178Z,28.30
2022-08-26T04:59:49.944Z,28.29
2022-08-26T05:02:20.729Z,28.30
2022-08-26T05:04:52.449Z,28.31
2022-08-26T05:07:23.144Z,28.35
2022-08-26T05:09:54.250Z,28.37
2022-08-26T05:12:25.349Z,28.38
2022-08-26T05:14:56.557Z,28.38
2022-08-26T05:17:28.765Z,28.39
2022-08-26T05:19:59.600Z,28.40
2022-08-26T05:22:30.347Z,28.40
2022-08-26T05:25:01.209Z,28.42
2022-08-26T05:27:32.485Z,28.44
2022-08-26T05:30:04.120Z,28.44
2022-08-26T05:32:35.059Z,28.45
2022-08-26T05:35:08.826Z,28.45
2022-08-26T05:37:41.146Z,28.45
2022-08-26T05:40:13.690Z,28.46
2022-08-26T05:42:44.428Z,28.46
2022-08-26T05:45:15.838Z,28.49
2022-08-26T05:47:48.098Z,28.49
2022-08-26T05:50:23.198Z,28.50
2022-08-26T05:52:55.644Z,28.51
2022-08-26T05:55:26.348Z,28.52
2022-08-26T05:57:57.019Z,28.53
2022-08-26T06:00:28.814Z,28.52
2022-08-26T06:02:59.748Z,28.52
2022-08-26T06:05:33.285Z,28.54
2022-08-26T06:08:14.220Z,28.54
2022-08-26T06:10:50.976Z,28.53
2022-08-26T06:13:25.679Z,28.54
2022-08-26T06:15:58.108Z,28.54
2022-08-26T06:18:32.823Z,28.54
2022-08-26T06:21:13.125Z,28.53
2022-08-26T06:24:02.811Z,28.55
2022-08-26T06:26:35.440Z,28.55
2022-08-26T06:29:09.202Z,28.54
2022-08-26T06:31:40.217Z,28.54
2022-08-26T06:34:11.673Z,28.54
2022-08-26T06:36:44.806Z,28.55
2022-08-26T06:39:18.806Z,28.56
2022-08-26T06:41:52.148Z,28.55
2022-08-26T06:44:23.365Z,28.55
2022-08-26T06:46:54.281Z,28.56
2022-08-26T06:49:27.519Z,28.57
2022-08-26T06:51:59.305Z,28.58
2022-08-26T06:54:31.880Z,28.57
2022-08-26T06:57:03.154Z,28.59
2022-08-26T06:59:34.993Z,28.59
2022-08-26T07:02:06.609Z,28.59
2022-08-26T07:04:39.059Z,28.60
2022-08-26T07:07:10.138Z,28.61
2022-08-26T07:09:40.900Z,28.63
2022-08-26T07:12:12.224Z,28.66
2022-08-26T07:14:47.522Z,28.65
2022-08-26T07:17:19.573Z,28.66
2022-08-26T07:19:51.672Z,28.68
2022-08-26T07:22:23.629Z,28.69
2022-08-26T07:24:55.065Z,28.70
2022-08-26T07:27:26.628Z,28.68
2022-08-26T07:30:00.350Z,28.68
2022-08-26T07:32:33.318Z,28.69
2022-08-26T07:35:04.524Z,28.71
2022-08-26T07:37:39.187Z,28.74
2022-08-26T07:40:11.916Z,28.76
2022-08-26T07:42:42.664Z,28.77
2022-08-26T07:45:13.632Z,28.76
2022-08-26T07:47:44.997Z,28.71
2022-08-26T07:50:16.436Z,28.70
2022-08-26T07:52:47.556Z,28.70
2022-08-26T07:55:19.018Z,28.69
2022-08-26T07:57:50.660Z,28.68
2022-08-26T08:00:21.773Z,28.68
2022-08-26T08:02:52.502Z,28.68
2022-08-26T08:05:33.575Z,28.67
2022-08-26T08:08:26.213Z,28.68
2022-08-26T08:10:59.005Z,28.66
2022-08-26T08:13:30.886Z,28.67
2022-08-26T08:16:02.605Z,28.68
2022-08-26T08:18:33.593Z,28.70
2022-08-26T08:21:21.426Z,28.69
2022-08-26T08:23:56.280Z,28.67
2022-08-26T08:26:27.653Z,28.68
2022-08-26T08:28:59.118Z,28.69
2022-08-26T08:31:56.611Z,28.68
2022-08-26T08:34:22.945Z,28.68
2022-08-26T08:36:54.447Z,28.71
2022-08-26T08:39:25.649Z,28.74
2022-08-26T08:42:20.548Z,28.76
2022-08-26T08:44:58.434Z,28.73
2022-08-26T08:47:37.209Z,28.76
2022-08-26T08:50:17.181Z,28.79
2022-08-26T08:52:53.322Z,28.78
2022-08-26T08:55:27.216Z,28.77
2022-08-26T08:58:08.044Z,28.79
2022-08-26T09:00:46.442Z,28.82
2022-08-26T09:03:31.775Z,28.84
2022-08-26T09:06:04.623Z,28.83
2022-08-26T09:08:37.529Z,28.86
2022-08-26T09:11:08.714Z,28.90
2022-08-26T09:13:44.720Z,28.92
2022-08-26T09:16:20.483Z,28.91
2022-08-26T09:19:05.493Z,28.91
2022-08-26T09:21:36.479Z,28.92
2022-08-26T09:24:08.765Z,28.94
2022-08-26T09:26:49.830Z,28.94
2022-08-26T09:29:27.164Z,28.94
2022-08-26T09:32:20.673Z,28.96
2022-08-26T09:35:01.038Z,28.99
2022-08-26T09:40:29.251Z,29.02
2022-08-26T09:43:13.506Z,29.06
2022-08-26T09:45:50.680Z,29.07
2022-08-26T09:48:35.488Z,29.08
2022-08-26T09:51:28.220Z,29.09
2022-08-26T09:54:01.081Z,29.11
2022-08-26T09:56:35.577Z,29.12
2022-08-26T09:59:10.992Z,29.13
2022-08-26T10:01:44.787Z,29.15
2022-08-26T10:04:22.348Z,29.16
2022-08-26T10:07:01.673Z,29.17
2022-08-26T10:09:35.022Z,29.18
2022-08-26T10:12:07.837Z,29.19
2022-08-26T10:17:30.893Z,29.19
2022-08-26T10:20:13.642Z,29.19
2022-08-26T10:23:00.093Z,29.20
2022-08-26T10:25:33.677Z,29.21
2022-08-26T10:28:11.919Z,29.19
2022-08-26T10:30:52.139Z,29.20
2022-08-26T10:33:23.512Z,29.20
2022-08-26T10:35:57.025Z,29.22
2022-08-26T10:38:34.796Z,29.23
2022-08-26T10:41:13.096Z,29.24
2022-08-26T10:43:50.641Z,29.26
2022-08-26T10:46:27.104Z,29.28
2022-08-26T10:49:06.467Z,29.33
2022-08-26T10:51:42.394Z,29.35
2022-08-26T10:54:22.678Z,29.36
2022-08-26T10:57:01.329Z,29.36
2022-08-26T10:59:46.027Z,29.37
2022-08-26T11:02:24.785Z,29.36
2022-08-26T11:05:00.035Z,29.33
2022-08-26T11:07:46.165Z,29.34
2022-08-26T11:10:28.704Z,29.35
2022-08-26T11:13:03.652Z,29.35
2022-08-26T11:16:01.301Z,29.36
2022-08-26T11:18:48.679Z,29.37
2022-08-26T11:22:07.699Z,29.38
2022-08-26T11:25:01.621Z,29.40
2022-08-26T11:28:05.752Z,29.44
2022-08-26T11:30:58.154Z,29.45
2022-08-26T11:33:59.547Z,29.41
2022-08-26T11:36:53.450Z,29.43
2022-08-26T11:39:29.754Z,29.46
2022-08-26T11:42:03.770Z,29.45
2022-08-26T11:44:49.262Z,29.46
2022-08-26T11:47:29.572Z,29.47
2022-08-26T11:50:16.903Z,29.45
2022-08-26T11:52:56.141Z,29.47
2022-08-26T11:55:27.054Z,29.50
2022-08-26T11:58:00.987Z,29.49
2022-08-26T12:00:35.043Z,29.49
2022-08-26T12:03:09.690Z,29.52
2022-08-26T12:05:44.530Z,29.51
2022-08-26T12:08:19.331Z,29.53
2022-08-26T12:10:50.437Z,29.56
2022-08-26T12:13:26.470Z,29.57
2022-08-26T12:15:59.313Z,29.57
2022-08-26T12:18:33.718Z,29.60
2022-08-26T12:21:14.353Z,29.61
2022-08-26T12:23:47.575Z,29.59
2022-08-26T12:26:27.723Z,29.61
2022-08-26T12:29:00.953Z,29.62
2022-08-26T12:31:36.041Z,29.63
2022-08-26T12:34:13.094Z,29.61
2022-08-26T12:36:53.544Z,29.61
2022-08-26T12:39:30.465Z,29.63
2022-08-26T12:42:03.098Z,29.62
2022-08-26T12:44:42.498Z,29.62
2022-08-26T12:47:35.224Z,29.64
2022-08-26T12:50:19.260Z,29.64
2022-08-26T12:53:00.635Z,29.67
2022-08-26T12:55:42.641Z,29.69
2022-08-26T12:58:22.470Z,29.72
2022-08-26T13:00:55.141Z,29.72
2022-08-26T13:03:43.344Z,29.73
2022-08-26T13:06:28.042Z,29.74
2022-08-26T13:09:00.999Z,29.75
2022-08-26T13:11:34.372Z,29.76
2022-08-26T13:14:07.174Z,29.77
2022-08-26T13:16:39.543Z,29.73
2022-08-26T13:19:13.075Z,29.75
2022-08-26T13:21:48.075Z,29.77
2022-08-26T13:24:22.057Z,29.78
2022-08-26T13:26:53.183Z,29.77
2022-08-26T13:29:24.125Z,29.79
2022-08-26T13:31:56.440Z,29.81
2022-08-26T13:34:28.105Z,29.81
2022-08-26T13:36:59.573Z,29.79
2022-08-26T13:39:30.603Z,29.79
2022-08-26T13:42:01.505Z,29.80
2022-08-26T13:44:32.629Z,29.80
2022-08-26T13:47:03.492Z,29.82
2022-08-26T13:49:34.379Z,29.83
2022-08-26T13:52:06.039Z,29.84
2022-08-26T13:54:37.077Z,29.84
2022-08-26T13:57:08.376Z,29.86
2022-08-26T13:59:39.271Z,29.87
2022-08-26T14:02:11.449Z,29.88
2022-08-26T14:04:42.385Z,29.88
2022-08-26T14:07:13.152Z,29.89
2022-08-26T14:09:43.914Z,29.89
2022-08-26T14:12:14.738Z,29.90
2022-08-26T14:14:45.543Z,29.90
2022-08-26T14:17:21.646Z,29.90
2022-08-26T14:19:53.773Z,29.91
2022-08-26T14:22:25.225Z,29.89
2022-08-26T14:24:56.788Z,29.90
2022-08-26T14:27:27.769Z,29.93
2022-08-26T14:29:59.604Z,29.92
2022-08-26T14:32:31.405Z,29.90
2022-08-26T14:35:02.649Z,29.93
2022-08-26T14:37:33.542Z,29.93
2022-08-26T14:40:06.248Z,29.94
2022-08-26T14:42:37.936Z,29.95
2022-08-26T14:45:13.459Z,29.94
2022-08-26T14:47:44.399Z,29.94
2022-08-26T14:50:19.312Z,29.95
2022-08-26T14:53:07.659Z,29.95
2022-08-26T14:55:42.305Z,29.94
2022-08-26T14:58:13.514Z,29.95
2022-08-26T15:00:44.603Z,29.96
2022-08-26T15:05:51.578Z,29.95
2022-08-26T15:08:22.629Z,29.96
2022-08-26T15:10:53.767Z,29.94
2022-08-26T15:13:24.755Z,29.94
2022-08-26T15:15:55.689Z,29.95
2022-08-26T15:18:26.714Z,29.93
2022-08-26T15:20:57.675Z,29.91
2022-08-26T15:23:28.690Z,29.91
2022-08-26T15:25:59.852Z,29.90
2022-08-26T15:28:30.983Z,29.91
2022-08-26T15:31:02.079Z,29.93
2022-08-26T15:33:33.262Z,29.92
2022-08-26T15:36:05.903Z,29.94
2022-08-26T15:38:41.380Z,30.03
2022-08-26T15:41:14.443Z,30.06
2022-08-26T15:43:45.848Z,30.09
2022-08-26T15:46:17.139Z,30.09
2022-08-26T15:48:48.378Z,30.06
2022-08-26T15:51:24.693Z,30.05
2022-08-26T15:53:56.730Z,30.05
2022-08-26T15:56:29.785Z,30.03
2022-08-26T15:59:01.450Z,30.04
2022-08-26T16:01:33.047Z,30.12
2022-08-26T16:04:04.453Z,30.16
2022-08-26T16:06:38.921Z,30.16
2022-08-26T16:09:10.626Z,30.16
2022-08-26T16:11:41.837Z,30.19
2022-08-26T16:14:12.714Z,30.19
2022-08-26T16:16:43.864Z,30.21
2022-08-26T16:19:15.623Z,30.22
2022-08-26T16:21:46.883Z,30.23
2022-08-26T16:24:18.123Z,30.22
2022-08-26T16:26:49.625Z,30.23
2022-08-26T16:29:20.888Z,30.24
2022-08-26T16:31:53.385Z,30.26
2022-08-26T16:34:24.445Z,30.26
2022-08-26T16:36:55.453Z,30.25
2022-08-26T16:39:26.338Z,30.28
2022-08-26T16:41:57.146Z,30.29
2022-08-26T16:44:28.102Z,30.32
2022-08-26T16:47:01.934Z,30.34
2022-08-26T16:49:32.871Z,30.33
2022-08-26T16:52:04.489Z,30.34
2022-08-26T16:54:35.579Z,30.33
2022-08-26T16:57:07.440Z,30.36
2022-08-26T16:59:38.458Z,30.39
2022-08-26T17:02:10.772Z,30.40
2022-08-26T17:04:41.862Z,30.37
2022-08-26T17:07:18.230Z,30.38
2022-08-26T17:09:49.114Z,30.40
2022-08-26T17:12:20.882Z,30.42
2022-08-26T17:14:51.818Z,30.44
2022-08-26T17:17:22.898Z,30.45
2022-08-26T17:19:53.688Z,30.43
2022-08-26T17:22:24.853Z,30.38
2022-08-26T17:24:56.305Z,30.35
2022-08-26T17:27:27.482Z,30.40
2022-08-26T17:29:58.401Z,30.42
2022-08-26T17:32:29.252Z,30.42
2022-08-26T17:35:00.134Z,30.42
2022-08-26T17:37:31.118Z,30.43
2022-08-26T17:40:02.521Z,30.44
2022-08-26T17:42:33.459Z,30.42
2022-08-26T17:45:04.682Z,30.45
2022-08-26T17:47:36.080Z,30.45
2022-08-26T17:50:10.339Z,30.43
2022-08-26T17:52:42.070Z,30.42
2022-08-26T17:55:16.755Z,30.43
2022-08-26T17:57:47.954Z,30.43
2022-08-26T18:00:27.539Z,30.44
2022-08-26T18:02:58.607Z,30.51
2022-08-26T18:05:30.117Z,30.55
2022-08-26T18:08:01.101Z,30.54
2022-08-26T18:10:32.191Z,30.50
2022-08-26T18:13:03.210Z,30.47
2022-08-26T18:15:34.381Z,30.43
2022-08-26T18:18:06.086Z,30.40
2022-08-26T18:20:41.236Z,30.39
2022-08-26T18:23:12.423Z,30.32
2022-08-26T18:25:44.888Z,30.23
2022-08-26T18:28:15.765Z,30.18
2022-08-26T18:30:47.670Z,30.14
2022-08-26T18:33:21.597Z,30.09
2022-08-26T18:35:52.887Z,30.04
2022-08-26T18:38:23.732Z,30.02
2022-08-26T18:40:59.485Z,29.99
2022-08-26T18:43:30.428Z,29.96
2022-08-26T18:46:10.061Z,29.93
2022-08-26T18:48:42.320Z,29.94
2022-08-26T18:51:19.379Z,29.92
2022-08-26T18:53:50.600Z,29.91
2022-08-26T18:56:22.126Z,29.91
2022-08-26T18:58:53.692Z,29.90
2022-08-26T19:01:27.575Z,29.89
2022-08-26T19:04:00.025Z,29.88
2022-08-26T19:06:33.057Z,29.88
2022-08-26T19:09:04.666Z,29.87
2022-08-26T19:11:42.921Z,29.91
2022-08-26T19:14:16.962Z,29.94
2022-08-26T19:16:52.678Z,29.97
2022-08-26T19:19:25.089Z,30.10
2022-08-26T19:21:56.640Z,30.16
2022-08-26T19:24:28.310Z,30.20
2022-08-26T19:27:01.543Z,30.23
2022-08-26T19:29:34.872Z,30.26
2022-08-26T19:32:06.887Z,30.28
2022-08-26T19:34:37.715Z,30.23
2022-08-26T19:37:08.564Z,30.22
2022-08-26T19:39:39.521Z,30.23
2022-08-26T19:42:10.517Z,30.26
2022-08-26T19:44:58.774Z,30.26
2022-08-26T19:47:29.554Z,30.26
2022-08-26T19:50:00.742Z,30.37
2022-08-26T19:52:32.756Z,30.43
2022-08-26T19:55:04.779Z,30.47
2022-08-26T19:57:36.379Z,30.50
2022-08-26T20:00:11.875Z,30.54
2022-08-26T20:02:43.937Z,30.57
2022-08-26T20:05:16.711Z,30.57
2022-08-26T20:07:47.780Z,30.57
2022-08-26T20:10:21.838Z,30.58
2022-08-26T20:12:53.405Z,30.60
2022-08-26T20:15:28.406Z,30.63
2022-08-26T20:17:59.432Z,30.64
2022-08-26T20:20:47.862Z,30.66
2022-08-26T20:23:18.799Z,30.68
2022-08-26T20:25:49.871Z,30.69
2022-08-26T20:28:20.815Z,30.71
2022-08-26T20:30:51.755Z,30.69
2022-08-26T20:33:22.696Z,30.71
2022-08-26T20:35:53.749Z,30.73
2022-08-26T20:38:24.697Z,30.73
2022-08-26T20:40:56.265Z,30.74
2022-08-26T20:43:27.187Z,30.73
2022-08-26T20:45:58.195Z,30.75
2022-08-26T20:48:29.433Z,30.75
2022-08-26T20:51:01.959Z,30.76
2022-08-26T20:53:33.415Z,30.77
2022-08-26T20:56:06.509Z,30.77
2022-08-26T20:58:37.858Z,30.78
2022-08-26T21:01:10.076Z,30.77
2022-08-26T21:03:41.129Z,30.78
2022-08-26T21:06:12.736Z,30.77
2022-08-26T21:08:44.392Z,30.74
2022-08-26T21:11:17.427Z,30.74
2022-08-26T21:14:04.295Z,30.73
2022-08-26T21:16:36.854Z,30.72
2022-08-26T21:19:10.757Z,30.73
2022-08-26T21:21:42.301Z,30.75
2022-08-26T21:24:13.687Z,30.76
2022-08-26T21:26:45.039Z,30.76
2022-08-26T21:29:15.910Z,30.76
2022-08-26T21:31:47.200Z,30.76
2022-08-26T21:34:20.021Z,30.74
2022-08-26T21:36:51.063Z,30.76
2022-08-26T21:39:22.216Z,30.76
2022-08-26T21:41:53.389Z,30.75
2022-08-26T21:44:24.304Z,30.74
2022-08-26T21:46:56.168Z,30.71
2022-08-26T21:49:27.314Z,30.69
2022-08-26T21:51:58.151Z,30.70
2022-08-26T21:54:29.097Z,30.69
2022-08-26T21:57:00.551Z,30.68
2022-08-26T21:59:31.377Z,30.67
2022-08-26T22:02:02.362Z,30.68
2022-08-26T22:04:35.116Z,30.69
2022-08-26T22:07:06.266Z,30.69
2022-08-26T22:09:37.382Z,30.69
2022-08-26T22:12:11.820Z,30.70
2022-08-26T22:14:43.189Z,30.70
2022-08-26T22:17:14.336Z,30.69
2022-08-26T22:19:46.449Z,30.68
2022-08-26T22:22:17.895Z,30.67
2022-08-26T22:24:48.913Z,30.65
2022-08-26T22:27:20.111Z,30.64
2022-08-26T22:29:51.608Z,30.66
2022-08-26T22:32:23.597Z,30.66
2022-08-26T22:34:54.522Z,30.67
2022-08-26T22:37:25.460Z,30.67
2022-08-26T22:39:56.549Z,30.66
2022-08-26T22:42:27.655Z,30.63
2022-08-26T22:44:58.608Z,30.62
2022-08-26T22:47:29.846Z,30.63
2022-08-26T22:50:01.432Z,30.64
2022-08-26T22:52:32.286Z,30.64
2022-08-26T22:55:03.190Z,30.64
2022-08-26T22:57:34.292Z,30.65
2022-08-26T23:00:06.561Z,30.66
2022-08-26T23:02:37.586Z,30.65
2022-08-26T23:05:10.286Z,30.65
2022-08-26T23:07:41.177Z,30.65
2022-08-26T23:10:13.448Z,30.64
2022-08-26T23:12:44.188Z,30.65
2022-08-26T23:15:15.948Z,30.65
2022-08-26T23:17:57.863Z,30.65
2022-08-26T23:20:30.629Z,30.65
2022-08-26T23:23:02.696Z,30.64
2022-08-26T23:25:34.460Z,30.63
2022-08-26T23:28:05.605Z,30.62
2022-08-26T23:30:36.657Z,30.63
2022-08-26T23:33:07.591Z,30.63
2022-08-26T23:35:38.541Z,30.63
2022-08-26T23:38:14.121Z,30.61
2022-08-26T23:40:45.436Z,30.58
2022-08-26T23:43:16.686Z,30.56
2022-08-26T23:45:47.596Z,30.56
2022-08-26T23:48:19.470Z,30.55
2022-08-26T23:51:08.036Z,30.54
2022-08-26T23:53:39.288Z,30.53
2022-08-26T23:56:16.232Z,30.55
2022-08-26T23:58:47.717Z,30.58
